F/V Adeline Stephen — FGUF — position and weather

sailwx.info

Track history (hours):
 
Tides and Currents Weather Stations Pressure Air Temp Water Temp Dewpoint Dewpoint Depression Visibility Wind Speed Wind Dir Waves Ship Positions

F/V Adeline Stephen

Last reported at 2014-Jul-31 19:33 UTC. Time now 2014-Aug-01 22:40 UTC.
Position N 48°01' W 005°10'.

Length 18 m.

Type: Fishing. MMSI: 228929000.

Date/timePositionNaut miles runAvg speedWind from/ knotsBaromVisibWave heightAir tempDewpointWater temp
2014-Jul-31 19:33N 48°01' W 005°10'15 7.5
2014-Jul-31 17:33N 47°55' W 004°49'  
2014-Jul-29 09:33N 47°44' W 003°22'0 0.0
2014-Jul-29 08:33N 47°44' W 003°22'0 0.0
2014-Jul-29 07:33N 47°44' W 003°22'2 1.5
2014-Jul-29 06:33N 47°42' W 003°22'36 9.0
2014-Jul-29 02:33N 47°45' W 004°16'25 8.3
2014-Jul-28 23:33N 47°55' W 004°49'8 8.3
2014-Jul-28 22:33N 47°59' W 005°01'8 8.3
2014-Jul-28 21:33N 48°02' W 005°12'9 9.2
2014-Jul-28 20:33N 48°07' W 005°24'  
Track history (hours):
 
Tides and Currents Weather Stations Pressure Air Temp Water Temp Dewpoint Dewpoint Depression Visibility Wind Speed Wind Dir Waves Ship Positions

F/V Adeline Stephen

Last reported at 2014-Jul-31 19:33 UTC. Time now 2014-Aug-01 22:40 UTC.
Position N 48°01' W 005°10'.

Length 18 m.

Type: Fishing. MMSI: 228929000.

Date/timePositionNaut miles runAvg speedWind from/ knotsBaromVisibWave heightAir tempDewpointWater temp
2014-Jul-31 19:33N 48°01' W 005°10'15 7.5
2014-Jul-31 17:33N 47°55' W 004°49'  
2014-Jul-29 09:33N 47°44' W 003°22'0 0.0
2014-Jul-29 08:33N 47°44' W 003°22'0 0.0
2014-Jul-29 07:33N 47°44' W 003°22'2 1.5
2014-Jul-29 06:33N 47°42' W 003°22'36 9.0
2014-Jul-29 02:33N 47°45' W 004°16'25 8.3
2014-Jul-28 23:33N 47°55' W 004°49'8 8.3
2014-Jul-28 22:33N 47°59' W 005°01'8 8.3
2014-Jul-28 21:33N 48°02' W 005°12'9 9.2
2014-Jul-28 20:33N 48°07' W 005°24'  

Dump ship's entire track history